Time;durP1;ratioP1;P1;durP2;ratioP2;P2;SDS_P1;SDS_P2;PMS_P1;PMS_P2;Temp;Humidity;BMP_temperature;BMP_pressure;BME280_temperature;BME280_humidity;BME280_pressure;Samples;Min_cycle;Max_cycle;Signal;HPM_P1;HPM_P2
2023/12/26 00:01:02;;;;;;;20.27;4.03;;;;;;;3.56;93.64;99008.28;4256001;28;20308;-67
2023/12/26 00:03:28;;;;;;;18.97;3.57;;;;;;;3.52;93.99;99010.38;4220205;28;20232;-69
2023/12/26 00:05:55;;;;;;;16.07;3.27;;;;;;;3.48;94.14;99006.28;4235232;28;20274;-70
2023/12/26 00:08:22;;;;;;;18.97;3.50;;;;;;;3.48;94.40;99016.97;4222542;28;22302;-68
2023/12/26 00:10:49;;;;;;;17.20;3.23;;;;;;;3.49;94.38;99013.31;4243691;28;20248;-70
2023/12/26 00:13:15;;;;;;;13.90;3.40;;;;;;;3.49;94.19;99014.19;4237047;28;20238;-71
2023/12/26 00:15:42;;;;;;;20.80;3.23;;;;;;;3.47;94.72;99015.31;4239506;28;20618;-68
2023/12/26 00:18:09;;;;;;;21.00;3.77;;;;;;;3.51;94.57;99021.22;4244067;28;20235;-69
2023/12/26 00:20:39;;;;;;;23.87;3.93;;;;;;;3.56;94.64;99025.16;4234658;28;21627;-70
2023/12/26 00:23:06;;;;;;;26.73;3.63;;;;;;;3.44;94.89;99032.44;4229709;28;20300;-69
2023/12/26 00:25:33;;;;;;;15.40;3.07;;;;;;;3.45;95.17;99036.81;4232070;28;20389;-68
2023/12/26 00:28:00;;;;;;;15.27;3.30;;;;;;;3.53;94.99;99044.19;4241806;28;20226;-68
2023/12/26 00:30:26;;;;;;;27.93;4.27;;;;;;;3.57;93.89;99047.44;4244164;28;20233;-70
2023/12/26 00:32:53;;;;;;;30.37;4.50;;;;;;;3.58;93.54;99047.28;4230753;28;21930;-70
2023/12/26 00:35:21;;;;;;;28.00;5.20;;;;;;;3.63;92.94;99052.22;4239831;28;20380;-70
2023/12/26 00:37:47;;;;;;;25.33;4.90;;;;;;;3.81;92.11;99057.75;4235418;28;20260;-70
2023/12/26 00:40:14;;;;;;;16.57;4.33;;;;;;;3.81;91.87;99063.13;4243172;28;20231;-71
2023/12/26 00:42:40;;;;;;;15.53;2.77;;;;;;;3.70;92.14;99057.91;4241402;28;23181;-72
2023/12/26 00:45:08;;;;;;;17.00;3.50;;;;;;;3.78;92.16;99074.94;4244684;28;20239;-72
2023/12/26 00:47:35;;;;;;;19.10;3.07;;;;;;;3.72;92.29;99077.31;4238745;28;20369;-68
2023/12/26 00:50:02;;;;;;;13.93;2.80;;;;;;;3.65;92.60;99080.53;4235049;28;25992;-72
2023/12/26 00:52:31;;;;;;;13.90;2.60;;;;;;;3.55;93.48;99079.66;4242102;28;20241;-71
2023/12/26 00:54:58;;;;;;;15.73;3.43;;;;;;;3.55;93.91;99086.84;4248076;28;20237;-70
2023/12/26 00:57:25;;;;;;;18.13;2.93;;;;;;;3.47;94.37;99084.88;4239419;28;20306;-68
2023/12/26 00:59:51;;;;;;;17.20;3.13;;;;;;;3.44;95.11;99085.13;4246295;28;20242;-69
2023/12/26 01:02:21;;;;;;;23.37;4.00;;;;;;;3.41;95.15;99074.69;4233177;28;20228;-70
2023/12/26 01:04:47;;;;;;;19.03;3.07;;;;;;;3.41;95.44;99075.53;4237360;28;21825;-71
2023/12/26 01:07:14;;;;;;;19.93;3.47;;;;;;;3.43;95.69;99075.41;4239726;28;20677;-69
2023/12/26 01:09:41;;;;;;;20.47;3.07;;;;;;;3.42;96.12;99071.03;4238466;28;21750;-70
2023/12/26 01:12:07;;;;;;;15.80;3.90;;;;;;;3.44;95.99;99077.94;4241355;28;21777;-71
2023/12/26 01:14:35;;;;;;;21.77;3.43;;;;;;;3.45;96.24;99079.63;4238188;28;25805;-69
2023/12/26 01:17:01;;;;;;;17.97;3.00;;;;;;;3.49;95.61;99067.69;4236494;28;20516;-69
2023/12/26 01:19:28;;;;;;;16.60;3.37;;;;;;;3.56;95.44;99078.69;4222682;28;20435;-71
2023/12/26 01:21:55;;;;;;;19.63;3.00;;;;;;;3.53;95.41;99073.63;4240966;28;20234;-67
2023/12/26 01:24:21;;;;;;;24.27;3.57;;;;;;;3.70;94.07;99077.47;4240602;28;20238;-70
2023/12/26 01:26:48;;;;;;;15.90;2.67;;;;;;;3.73;93.07;99069.16;4246749;28;21182;-69
2023/12/26 01:29:15;;;;;;;13.77;2.67;;;;;;;3.74;92.92;99068.16;4227736;28;22219;-69
2023/12/26 01:31:42;;;;;;;16.37;2.93;;;;;;;3.80;92.72;99072.13;4235440;28;20285;-70
2023/12/26 01:34:08;;;;;;;18.40;3.27;;;;;;;3.86;91.89;99065.38;4236649;28;22108;-72
2023/12/26 01:36:35;;;;;;;19.33;3.23;;;;;;;3.93;91.25;99059.31;4240992;28;20663;-69
2023/12/26 01:39:05;;;;;;;18.23;2.93;;;;;;;3.96;91.01;99056.38;4220996;28;20238;-71
2023/12/26 01:41:32;;;;;;;22.13;2.93;;;;;;;4.01;90.59;99047.06;4232377;28;20238;-68
2023/12/26 01:43:59;;;;;;;14.60;2.60;;;;;;;4.03;90.58;99051.31;4242113;28;20245;-72
2023/12/26 01:46:26;;;;;;;15.93;3.00;;;;;;;4.00;90.89;99053.44;4241711;28;20283;-68
2023/12/26 01:48:55;;;;;;;16.33;2.90;;;;;;;4.04;90.70;99049.47;4246048;28;20231;-71
2023/12/26 01:51:24;;;;;;;12.73;2.77;;;;;;;4.14;89.82;99055.69;4211064;28;20235;-69
2023/12/26 01:53:51;;;;;;;18.80;3.07;;;;;;;4.11;90.09;99055.97;4243202;28;22870;-69
2023/12/26 01:56:18;;;;;;;19.27;3.13;;;;;;;4.10;90.33;99063.16;4252725;28;21768;-68
2023/12/26 01:58:48;;;;;;;19.93;3.00;;;;;;;4.03;90.84;99059.34;4219836;28;20258;-70
2023/12/26 02:01:16;;;;;;;12.00;2.70;;;;;;;4.05;91.03;99056.53;4223543;28;20554;-69
2023/12/26 02:03:42;;;;;;;20.77;2.97;;;;;;;4.04;91.38;99054.84;4223108;28;20339;-70
2023/12/26 02:06:09;;;;;;;16.10;3.43;;;;;;;4.04;91.87;99052.97;4232942;28;20231;-69
2023/12/26 02:08:37;;;;;;;20.70;4.33;;;;;;;4.01;92.46;99044.38;4234333;28;20228;-71
2023/12/26 02:11:04;;;;;;;5.73;1.40;;;;;;;3.91;93.12;99055.09;4256068;28;20231;-68
2023/12/26 02:13:31;;;;;;;11.07;1.80;;;;;;;3.82;94.00;99051.44;4239289;28;20223;-69
2023/12/26 02:16:03;;;;;;;16.50;2.87;;;;;;;3.86;94.34;99065.38;4230320;28;20351;-68
2023/12/26 02:18:30;;;;;;;9.83;2.07;;;;;;;3.85;94.79;99047.63;4231702;28;20590;-70
2023/12/26 02:20:56;;;;;;;13.27;2.23;;;;;;;3.88;94.87;99050.03;4239241;28;20561;-70
2023/12/26 02:23:27;;;;;;;0.43;0.43;;;;;;;3.81;95.33;99039.03;4241553;28;20238;-69
2023/12/26 02:25:55;;;;;;;0.40;0.40;;;;;;;3.83;95.93;99041.56;4240253;28;20231;-69
2023/12/26 02:28:22;;;;;;;0.20;0.20;;;;;;;3.80;96.36;99031.97;4229941;28;20479;-69
2023/12/26 02:30:50;;;;;;;0.00;0.00;;;;;;;3.82;96.76;99038.03;4244038;28;20234;-68
2023/12/26 02:33:17;;;;;;;0.10;0.10;;;;;;;3.76;97.08;99036.75;4241108;28;21870;-70
2023/12/26 02:35:44;;;;;;;0.00;0.00;;;;;;;3.72;97.44;99027.31;4221535;28;20230;-68
2023/12/26 02:38:11;;;;;;;0.00;0.00;;;;;;;3.80;97.52;99027.47;4230696;28;20226;-68
2023/12/26 02:40:38;;;;;;;0.00;0.00;;;;;;;3.77;97.77;99026.91;4233419;28;20308;-69
2023/12/26 02:43:04;;;;;;;0.00;0.00;;;;;;;3.76;98.17;99020.69;4238133;28;20285;-69
2023/12/26 02:45:31;;;;;;;10.50;1.57;;;;;;;3.78;98.19;99026.75;4238401;28;20281;-69
2023/12/26 02:47:57;;;;;;;17.17;3.57;;;;;;;3.73;98.75;99028.16;4221358;28;20358;-69
2023/12/26 02:50:24;;;;;;;21.73;4.27;;;;;;;3.62;99.31;99034.47;4230630;28;20276;-71
2023/12/26 02:52:51;;;;;;;16.93;3.60;;;;;;;3.60;99.81;99037.31;4235701;28;20673;-69
2023/12/26 02:55:18;;;;;;;8.10;1.80;;;;;;;3.58;100.00;99038.44;4236893;28;20231;-70
2023/12/26 02:57:45;;;;;;;16.73;3.60;;;;;;;3.54;100.00;99035.19;4232766;28;20948;-69
2023/12/26 03:00:13;;;;;;;10.17;3.40;;;;;;;3.50;100.00;99036.41;4235745;28;20243;-69
2023/12/26 03:02:39;;;;;;;14.73;3.70;;;;;;;3.49;100.00;99022.22;4239305;28;21588;-68
2023/12/26 03:05:06;;;;;;;9.60;3.03;;;;;;;3.53;100.00;99029.94;4239075;28;20234;-71
2023/12/26 03:07:33;;;;;;;15.77;3.37;;;;;;;3.56;100.00;99018.97;4231752;28;20235;-68
2023/12/26 03:10:03;;;;;;;20.67;3.73;;;;;;;3.60;100.00;99020.38;4241581;28;21809;-70
2023/12/26 03:12:30;;;;;;;22.50;3.50;;;;;;;3.58;100.00;99023.22;4236257;28;20670;-72
2023/12/26 03:14:57;;;;;;;13.67;2.90;;;;;;;3.59;100.00;99013.34;4221209;28;20305;-69
2023/12/26 03:17:25;;;;;;;16.23;3.57;;;;;;;3.62;100.00;99007.72;4232469;28;20425;-69
2023/12/26 03:19:52;;;;;;;13.10;3.43;;;;;;;3.64;100.00;99001.25;4233005;28;20660;-69
2023/12/26 03:22:20;;;;;;;14.93;3.13;;;;;;;3.60;100.00;98991.81;4239997;28;25697;-68
2023/12/26 03:24:47;;;;;;;14.40;3.40;;;;;;;3.61;100.00;98995.31;4238287;28;20253;-70
2023/12/26 03:27:14;;;;;;;12.23;3.63;;;;;;;3.69;100.00;98986.63;4236174;28;20234;-69
2023/12/26 03:29:41;;;;;;;15.07;3.33;;;;;;;3.69;100.00;98984.78;4242240;28;20245;-68
2023/12/26 03:32:09;;;;;;;12.50;3.93;;;;;;;3.81;100.00;98980.97;4246388;28;24137;-69
2023/12/26 03:34:39;;;;;;;12.73;3.83;;;;;;;3.96;100.00;98983.25;4236194;28;20271;-69
2023/12/26 03:37:05;;;;;;;13.90;3.03;;;;;;;4.08;100.00;98973.22;4232707;28;22112;-69
2023/12/26 03:39:32;;;;;;;21.13;4.17;;;;;;;4.11;100.00;98975.63;4237112;28;21822;-70
2023/12/26 03:41:59;;;;;;;18.00;3.43;;;;;;;4.08;99.73;98971.41;4242909;28;20319;-68
2023/12/26 03:44:25;;;;;;;18.87;3.73;;;;;;;4.17;99.58;98966.19;4229063;28;20380;-68
2023/12/26 03:46:52;;;;;;;11.87;3.17;;;;;;;4.35;98.97;98975.16;4232940;28;20251;-70
2023/12/26 03:49:18;;;;;;;13.17;3.30;;;;;;;4.38;98.55;98966.84;4242294;28;20300;-69
2023/12/26 03:51:46;;;;;;;13.77;3.47;;;;;;;4.42;98.18;98956.69;4220979;28;20353;-69
2023/12/26 03:54:14;;;;;;;13.27;2.70;;;;;;;4.49;97.59;98951.59;4230860;28;20236;-68
2023/12/26 03:56:40;;;;;;;12.60;3.30;;;;;;;4.51;97.59;98950.47;4233378;28;22876;-70
2023/12/26 03:59:07;;;;;;;13.33;3.00;;;;;;;4.56;97.15;98942.00;4231450;28;22817;-71
2023/12/26 04:01:34;;;;;;;16.27;3.17;;;;;;;4.54;97.40;98941.28;4231654;28;20290;-71
2023/12/26 04:04:02;;;;;;;8.43;3.00;;;;;;;4.66;96.95;98940.09;4230190;28;23438;-68
2023/12/26 04:06:29;;;;;;;9.57;2.60;;;;;;;4.72;96.60;98939.50;4235571;28;20584;-71
2023/12/26 04:08:56;;;;;;;9.07;2.70;;;;;;;4.73;95.83;98926.97;4224098;28;21420;-69
2023/12/26 04:11:23;;;;;;;9.13;1.83;;;;;;;4.83;95.99;98929.59;4226834;28;21476;-68
2023/12/26 04:13:49;;;;;;;10.97;2.17;;;;;;;4.86;95.38;98929.31;4239425;28;20292;-69
2023/12/26 04:16:16;;;;;;;13.40;3.10;;;;;;;4.90;95.68;98919.97;4238044;28;20233;-67
2023/12/26 04:18:43;;;;;;;9.03;2.47;;;;;;;4.94;95.17;98916.03;4235135;28;20591;-69
2023/12/26 04:21:10;;;;;;;14.90;3.10;;;;;;;4.90;95.26;98917.28;4238998;28;20242;-67
2023/12/26 04:23:36;;;;;;;14.87;2.90;;;;;;;4.92;95.74;98910.78;4235681;28;22261;-70
2023/12/26 04:26:04;;;;;;;14.10;2.83;;;;;;;5.05;94.69;98909.63;4234134;28;20297;-68
2023/12/26 04:28:31;;;;;;;10.30;3.30;;;;;;;5.04;94.92;98898.03;4241771;28;23115;-68
2023/12/26 04:30:57;;;;;;;9.37;2.80;;;;;;;4.98;95.21;98900.47;4237240;28;23396;-69
2023/12/26 04:33:25;;;;;;;15.73;3.70;;;;;;;5.00;94.46;98903.84;4229889;28;20421;-70
2023/12/26 04:35:52;;;;;;;12.43;3.80;;;;;;;5.02;95.62;98907.22;4241549;28;20235;-68
2023/12/26 04:38:18;;;;;;;12.27;3.40;;;;;;;4.94;95.85;98889.22;4239481;28;20305;-69
2023/12/26 04:40:45;;;;;;;10.50;3.13;;;;;;;5.01;96.04;98889.44;4241283;28;20520;-69
2023/12/26 04:43:11;;;;;;;8.47;2.50;;;;;;;5.04;96.17;98897.19;4243555;28;23576;-72
2023/12/26 04:45:38;;;;;;;10.63;3.13;;;;;;;4.86;96.83;98892.63;4229429;28;23815;-69
2023/12/26 04:48:07;;;;;;;0.00;0.00;;;;;;;5.03;96.33;98893.66;4245935;28;20722;-71
2023/12/26 04:50:35;;;;;;;18.73;3.23;;;;;;;5.24;95.48;98879.13;4230192;28;20391;-69
2023/12/26 04:53:04;;;;;;;19.87;3.10;;;;;;;5.19;95.35;98879.59;4237158;28;20231;-69
2023/12/26 04:55:32;;;;;;;17.83;3.63;;;;;;;5.12;96.62;98883.00;4228050;28;22672;-69
2023/12/26 04:57:58;;;;;;;16.83;3.47;;;;;;;5.12;97.11;98866.91;4225766;28;20226;-68
2023/12/26 05:00:25;;;;;;;16.40;3.97;;;;;;;5.16;97.41;98860.28;4236505;28;21573;-70
2023/12/26 05:02:52;;;;;;;11.87;3.20;;;;;;;5.19;97.23;98865.31;4236544;28;20294;-68
2023/12/26 05:05:18;;;;;;;11.27;2.70;;;;;;;5.37;97.06;98863.50;4246940;28;20242;-68
2023/12/26 05:07:45;;;;;;;11.13;3.23;;;;;;;5.22;97.83;98856.97;4228425;28;20739;-71
2023/12/26 05:10:11;;;;;;;0.17;0.17;;;;;;;5.34;98.25;98853.06;4237841;28;20292;-69
2023/12/26 05:12:38;;;;;;;0.00;0.00;;;;;;;5.34;98.38;98846.88;4237766;28;20781;-70
2023/12/26 05:15:05;;;;;;;16.57;3.20;;;;;;;5.24;99.51;98839.72;4236127;28;20239;-69
2023/12/26 05:17:31;;;;;;;11.47;3.23;;;;;;;5.25;100.00;98837.88;4238159;28;20604;-69
2023/12/26 05:20:00;;;;;;;13.37;3.30;;;;;;;5.28;100.00;98834.06;4238713;28;20262;-69
2023/12/26 05:22:46;;;;;;;11.03;2.50;;;;;;;5.24;100.00;98841.59;4229895;28;20241;-69
2023/12/26 05:25:12;;;;;;;11.87;4.07;;;;;;;5.27;100.00;98829.69;4241824;28;20341;-68
2023/12/26 05:27:39;;;;;;;8.77;2.67;;;;;;;5.22;100.00;98820.25;4237674;28;20234;-69
2023/12/26 05:30:06;;;;;;;9.60;3.20;;;;;;;5.20;100.00;98822.25;4245782;28;20234;-70
2023/12/26 05:32:33;;;;;;;11.37;2.97;;;;;;;5.23;100.00;98813.91;4237233;28;20367;-69
2023/12/26 05:35:03;;;;;;;10.17;3.13;;;;;;;5.33;100.00;98807.63;4242142;28;20888;-70
2023/12/26 05:37:30;;;;;;;9.60;2.80;;;;;;;5.32;100.00;98798.72;4224843;28;21009;-67
2023/12/26 05:39:56;;;;;;;14.10;3.30;;;;;;;5.29;100.00;98795.53;4242652;28;23082;-68
2023/12/26 05:42:23;;;;;;;9.87;3.30;;;;;;;5.34;100.00;98794.03;4238181;28;20291;-70
2023/12/26 05:44:50;;;;;;;12.13;3.27;;;;;;;5.26;100.00;98795.81;4243009;28;21310;-66
2023/12/26 05:47:17;;;;;;;11.07;3.10;;;;;;;5.34;100.00;98790.53;4232267;28;22435;-70
2023/12/26 05:49:44;;;;;;;9.57;3.20;;;;;;;5.45;100.00;98789.44;4225148;28;20297;-69
2023/12/26 05:52:11;;;;;;;11.63;3.70;;;;;;;5.38;100.00;98790.06;4244479;28;20449;-69
2023/12/26 05:54:38;;;;;;;10.73;3.27;;;;;;;5.44;100.00;98782.38;4230065;28;20234;-69
2023/12/26 05:57:04;;;;;;;8.37;3.50;;;;;;;5.53;100.00;98778.78;4234061;28;20523;-69
2023/12/26 05:59:34;;;;;;;11.50;3.80;;;;;;;5.56;100.00;98765.00;4238188;28;20227;-70
2023/12/26 06:02:00;;;;;;;11.73;4.17;;;;;;;5.53;100.00;98770.72;4242080;28;20342;-69
2023/12/26 06:04:27;;;;;;;9.80;3.30;;;;;;;5.48;100.00;98767.63;4240451;28;21168;-69
2023/12/26 06:06:53;;;;;;;14.43;4.10;;;;;;;5.53;100.00;98760.81;4235640;28;20281;-69
2023/12/26 06:09:21;;;;;;;13.13;4.27;;;;;;;5.53;100.00;98758.13;4239762;28;20233;-68
2023/12/26 06:11:48;;;;;;;9.03;4.10;;;;;;;5.65;100.00;98749.84;4239915;28;21755;-71
2023/12/26 06:14:14;;;;;;;9.57;3.87;;;;;;;5.58;100.00;98746.09;4230127;28;21010;-69
2023/12/26 06:16:41;;;;;;;9.23;3.87;;;;;;;5.60;100.00;98744.06;4235906;28;20231;-69
2023/12/26 06:19:09;;;;;;;8.17;4.00;;;;;;;5.65;100.00;98739.91;4238918;28;20971;-68
2023/12/26 06:21:36;;;;;;;10.53;4.10;;;;;;;5.62;100.00;98729.53;4228565;28;20235;-69
2023/12/26 06:24:03;;;;;;;9.67;4.43;;;;;;;5.69;100.00;98738.63;4224012;28;20234;-70
2023/12/26 06:26:30;;;;;;;8.27;3.93;;;;;;;5.77;100.00;98739.66;4234203;28;20241;-68
2023/12/26 06:28:57;;;;;;;8.23;4.20;;;;;;;5.76;100.00;98737.97;4237643;28;20231;-68
2023/12/26 06:31:23;;;;;;;8.23;3.97;;;;;;;5.86;100.00;98723.44;4240551;28;20281;-69
2023/12/26 06:33:50;;;;;;;7.77;3.80;;;;;;;5.95;100.00;98718.13;4244698;28;20299;-68
2023/12/26 06:36:17;;;;;;;8.83;4.30;;;;;;;5.91;100.00;98712.22;4232071;28;21682;-69
2023/12/26 06:38:44;;;;;;;7.43;4.13;;;;;;;5.99;100.00;98708.75;4250592;28;21796;-69
2023/12/26 06:41:10;;;;;;;10.47;4.63;;;;;;;5.97;100.00;98705.34;4239412;28;20289;-69
2023/12/26 06:43:37;;;;;;;7.53;4.60;;;;;;;6.09;100.00;98708.63;4239552;28;21330;-69
2023/12/26 06:46:04;;;;;;;8.03;4.00;;;;;;;6.22;100.00;98700.13;4233300;28;21174;-68
2023/12/26 06:48:30;;;;;;;7.70;4.27;;;;;;;6.27;100.00;98706.69;4235780;28;20397;-70
2023/12/26 06:50:57;;;;;;;6.87;4.03;;;;;;;6.26;100.00;98696.13;4240566;28;20236;-71
2023/12/26 06:53:24;;;;;;;8.83;4.00;;;;;;;6.32;100.00;98696.28;4241727;28;20254;-68
2023/12/26 06:55:51;;;;;;;12.23;5.20;;;;;;;6.40;100.00;98691.94;4238592;28;20342;-72
2023/12/26 06:58:17;;;;;;;6.87;4.47;;;;;;;6.41;100.00;98690.94;4236077;28;20315;-69
2023/12/26 07:00:44;;;;;;;9.97;4.20;;;;;;;6.46;100.00;98691.28;4236722;28;20257;-69
2023/12/26 07:03:11;;;;;;;7.27;4.10;;;;;;;6.53;100.00;98681.59;4236555;28;25515;-71
2023/12/26 07:05:38;;;;;;;8.57;4.40;;;;;;;6.47;100.00;98693.81;4235125;28;20293;-68
2023/12/26 07:08:05;;;;;;;6.90;4.00;;;;;;;6.54;100.00;98679.72;4238279;28;20635;-69
2023/12/26 07:10:32;;;;;;;7.37;4.43;;;;;;;6.60;100.00;98666.47;4234264;28;20301;-70
2023/12/26 07:12:58;;;;;;;5.90;4.13;;;;;;;6.58;100.00;98667.63;4236030;28;21170;-69
2023/12/26 07:15:25;;;;;;;10.40;4.70;;;;;;;6.70;100.00;98673.53;4224590;28;22343;-68
2023/12/26 07:17:52;;;;;;;7.40;4.27;;;;;;;6.69;100.00;98667.31;4237865;28;21248;-75
2023/12/26 07:20:21;;;;;;;8.13;4.73;;;;;;;6.66;100.00;98649.69;4241344;28;20511;-70
2023/12/26 07:22:48;;;;;;;7.30;3.90;;;;;;;6.77;100.00;98659.25;4229833;28;20243;-69
2023/12/26 07:25:14;;;;;;;14.77;4.53;;;;;;;6.76;100.00;98651.38;4234185;28;20774;-70
2023/12/26 07:27:41;;;;;;;8.03;4.40;;;;;;;6.76;100.00;98652.19;4232670;28;20231;-70
2023/12/26 07:30:08;;;;;;;7.57;4.73;;;;;;;6.87;100.00;98650.19;4237272;28;20584;-71
2023/12/26 07:32:34;;;;;;;9.20;4.50;;;;;;;6.82;100.00;98654.22;4238434;28;23146;-72
2023/12/26 07:35:02;;;;;;;7.17;4.73;;;;;;;6.84;100.00;98637.91;4257705;28;20330;-71
2023/12/26 07:37:28;;;;;;;7.03;4.10;;;;;;;6.84;100.00;98637.91;4245787;28;20348;-72
2023/12/26 07:39:55;;;;;;;8.90;4.30;;;;;;;6.76;100.00;98636.06;4226778;28;20291;-70
2023/12/26 07:42:22;;;;;;;7.57;4.40;;;;;;;6.77;100.00;98637.75;4237065;28;20249;-70
2023/12/26 07:44:49;;;;;;;9.10;4.80;;;;;;;6.84;100.00;98627.13;4241091;28;21899;-70
2023/12/26 07:47:16;;;;;;;10.53;5.40;;;;;;;6.86;100.00;98614.38;4248089;28;20350;-71
2023/12/26 07:49:43;;;;;;;10.30;5.37;;;;;;;6.92;100.00;98608.31;4239365;28;21377;-72
2023/12/26 07:52:09;;;;;;;8.30;4.60;;;;;;;6.86;100.00;98610.84;4225076;28;20273;-71
2023/12/26 07:54:36;;;;;;;7.60;4.77;;;;;;;6.90;100.00;98620.25;4238477;28;21202;-71
2023/12/26 07:57:03;;;;;;;8.30;4.67;;;;;;;6.95;100.00;98626.81;4245479;28;21325;-74
2023/12/26 07:59:30;;;;;;;9.17;4.60;;;;;;;7.02;100.00;98608.16;4225984;28;20245;-73
2023/12/26 08:01:56;;;;;;;9.80;5.20;;;;;;;7.05;100.00;98610.50;4226599;28;20240;-70
2023/12/26 08:04:23;;;;;;;7.60;4.30;;;;;;;7.15;100.00;98613.00;4246778;28;21965;-73
2023/12/26 08:06:50;;;;;;;7.17;4.33;;;;;;;7.20;100.00;98613.34;4248768;28;22106;-70
2023/12/26 08:09:19;;;;;;;7.77;4.30;;;;;;;7.27;100.00;98614.34;4244008;28;20290;-69
2023/12/26 08:11:46;;;;;;;7.63;4.77;;;;;;;7.30;100.00;98607.78;4251340;28;20239;-67
2023/12/26 08:14:17;;;;;;;9.53;4.43;;;;;;;7.36;100.00;98612.47;4233663;28;20268;-70
2023/12/26 08:16:48;;;;;;;9.90;4.90;;;;;;;7.44;100.00;98608.91;4235493;28;25364;-70
2023/12/26 08:19:14;;;;;;;6.67;4.40;;;;;;;7.54;100.00;98595.25;4238365;28;20743;-71
2023/12/26 08:21:45;;;;;;;6.57;4.17;;;;;;;7.57;100.00;98605.66;4241559;28;20638;-71
2023/12/26 08:24:12;;;;;;;6.30;3.50;;;;;;;7.92;100.00;98593.56;4237657;28;20464;-71
2023/12/26 08:26:38;;;;;;;6.23;2.60;;;;;;;7.88;100.00;98594.97;4250692;28;20350;-70
2023/12/26 08:29:05;;;;;;;4.73;2.43;;;;;;;7.84;100.00;98598.19;4238423;28;20234;-72
2023/12/26 08:31:33;;;;;;;4.13;2.27;;;;;;;7.84;100.00;98606.25;4249365;28;20473;-69
2023/12/26 08:34:00;;;;;;;4.97;2.20;;;;;;;7.90;100.00;98601.00;4241360;28;20238;-70
2023/12/26 08:36:27;;;;;;;2.73;1.90;;;;;;;7.90;100.00;98597.47;4250767;28;21550;-69
2023/12/26 08:38:53;;;;;;;4.00;2.10;;;;;;;7.98;100.00;98593.88;4251361;28;20234;-70
2023/12/26 08:41:20;;;;;;;4.07;1.90;;;;;;;7.96;100.00;98594.06;4232063;28;20243;-69
2023/12/26 08:43:47;;;;;;;3.23;1.90;;;;;;;8.03;100.00;98586.13;4233230;28;20480;-71
2023/12/26 08:46:14;;;;;;;4.63;2.00;;;;;;;7.96;100.00;98587.84;4244649;28;20733;-72
2023/12/26 08:48:40;;;;;;;5.00;1.90;;;;;;;7.96;100.00;98590.53;4242924;28;20300;-72
2023/12/26 08:51:07;;;;;;;5.07;1.90;;;;;;;7.94;100.00;98590.69;4255818;28;23218;-72
2023/12/26 08:53:34;;;;;;;4.47;2.20;;;;;;;7.92;100.00;98585.50;4268390;28;20237;-69
2023/12/26 08:56:03;;;;;;;5.60;2.30;;;;;;;7.95;100.00;98588.88;4260755;28;20227;-70
2023/12/26 08:58:32;;;;;;;5.70;2.20;;;;;;;7.97;100.00;98584.97;4247408;28;20344;-68
2023/12/26 09:01:00;;;;;;;5.07;2.17;;;;;;;7.99;100.00;98588.34;4263923;28;20779;-73
2023/12/26 09:03:28;;;;;;;3.77;2.20;;;;;;;8.03;100.00;98594.22;4245824;28;25170;-75
2023/12/26 09:05:55;;;;;;;5.17;2.33;;;;;;;8.06;100.00;98594.69;4247722;28;20334;-70
2023/12/26 09:08:22;;;;;;;4.83;2.33;;;;;;;8.13;100.00;98583.19;4247989;28;21087;-70
2023/12/26 09:10:49;;;;;;;4.87;2.60;;;;;;;8.10;100.00;98581.72;4254723;28;20232;-73
2023/12/26 09:13:20;;;;;;;3.27;2.07;;;;;;;8.10;100.00;98587.09;4247896;28;20493;-70
2023/12/26 09:15:48;;;;;;;3.00;2.00;;;;;;;8.18;100.00;98594.28;4261793;28;23352;-70
2023/12/26 09:18:16;;;;;;;4.20;2.53;;;;;;;8.20;100.00;98586.88;4237490;28;20233;-69
2023/12/26 09:20:43;;;;;;;3.30;2.33;;;;;;;8.21;100.00;98591.25;4251956;28;20237;-70
2023/12/26 09:23:12;;;;;;;1.20;0.93;;;;;;;8.24;100.00;98602.50;4235397;28;20793;-70
2023/12/26 09:25:39;;;;;;;3.30;1.93;;;;;;;8.31;100.00;98589.13;4238740;28;25738;-70
2023/12/26 09:28:08;;;;;;;6.27;2.13;;;;;;;8.32;100.00;98593.50;4245922;28;20366;-69
2023/12/26 09:30:35;;;;;;;3.70;2.30;;;;;;;8.33;100.00;98595.19;4239342;28;20307;-70
2023/12/26 09:33:02;;;;;;;5.73;2.17;;;;;;;8.38;100.00;98579.31;4248011;28;21272;-70
2023/12/26 09:35:29;;;;;;;2.47;1.90;;;;;;;8.43;100.00;98599.53;4246659;28;21315;-70
2023/12/26 09:38:01;;;;;;;2.97;1.63;;;;;;;8.45;100.00;98598.31;4237422;28;23862;-69
2023/12/26 09:40:28;;;;;;;2.73;1.90;;;;;;;8.47;100.00;98592.78;4256604;28;20294;-68
2023/12/26 09:43:00;;;;;;;2.87;1.77;;;;;;;8.45;100.00;98605.59;4250158;28;20614;-69
2023/12/26 09:45:27;;;;;;;3.73;2.13;;;;;;;8.45;100.00;98605.59;4245388;28;23598;-70
2023/12/26 09:47:57;;;;;;;3.37;2.00;;;;;;;8.43;100.00;98613.00;4247888;28;21098;-67
2023/12/26 09:50:24;;;;;;;3.17;2.00;;;;;;;8.44;100.00;98612.81;4241975;28;21475;-68
2023/12/26 09:52:53;;;;;;;3.90;2.00;;;;;;;8.47;100.00;98626.00;4250405;28;20614;-67
2023/12/26 09:55:20;;;;;;;2.83;1.83;;;;;;;8.48;100.00;98616.03;4240152;28;20234;-69
2023/12/26 09:57:48;;;;;;;3.97;2.50;;;;;;;8.50;100.00;98620.22;4273509;28;20539;-71
2023/12/26 10:00:15;;;;;;;4.13;2.30;;;;;;;8.52;100.00;98614.66;4251953;28;20651;-72
2023/12/26 10:02:42;;;;;;;4.07;2.50;;;;;;;8.52;100.00;98625.47;4257664;28;20498;-70
2023/12/26 10:05:10;;;;;;;4.27;2.60;;;;;;;8.49;100.00;98623.09;4275609;28;20861;-71
2023/12/26 10:07:37;;;;;;;4.07;2.63;;;;;;;8.46;100.00;98632.38;4241646;28;22087;-70
2023/12/26 10:10:05;;;;;;;4.17;3.07;;;;;;;8.46;100.00;98635.06;4246047;28;25482;-73
2023/12/26 10:12:34;;;;;;;4.10;3.13;;;;;;;8.37;100.00;98647.75;4258328;28;20243;-73
2023/12/26 10:15:03;;;;;;;7.87;3.80;;;;;;;8.38;100.00;98632.41;4266805;28;20560;-71
2023/12/26 10:17:31;;;;;;;7.00;3.30;;;;;;;8.45;100.00;98643.34;4253213;28;20230;-73
2023/12/26 10:19:59;;;;;;;8.03;3.50;;;;;;;8.48;100.00;98648.38;4270487;28;20230;-71
2023/12/26 10:22:28;;;;;;;4.77;2.80;;;;;;;8.48;100.00;98665.44;4274300;28;20847;-72
2023/12/26 10:25:00;;;;;;;3.80;2.33;;;;;;;8.51;100.00;98661.53;4271075;28;20588;-73
2023/12/26 10:27:26;;;;;;;3.17;2.17;;;;;;;8.50;100.00;98657.97;4263486;28;21218;-73
2023/12/26 10:29:55;;;;;;;3.27;2.27;;;;;;;8.54;100.00;98662.00;4275871;28;20352;-73
2023/12/26 10:32:25;;;;;;;4.10;2.20;;;;;;;8.52;100.00;98677.53;4255861;28;20328;-72
2023/12/26 10:34:53;;;;;;;3.87;2.27;;;;;;;8.49;100.00;98677.03;4236063;28;20578;-72
2023/12/26 10:37:22;;;;;;;2.80;1.73;;;;;;;8.44;100.00;98668.63;4268284;28;20228;-70
2023/12/26 10:39:49;;;;;;;4.53;2.53;;;;;;;8.50;100.00;98681.41;4258459;28;20251;-70
2023/12/26 10:42:16;;;;;;;7.20;3.07;;;;;;;8.50;100.00;98684.94;4241677;28;23593;-70
2023/12/26 10:45:00;;;;;;;6.13;3.20;;;;;;;8.53;100.00;98692.69;4262648;28;20239;-71
2023/12/26 10:47:30;;;;;;;7.50;3.20;;;;;;;8.46;100.00;98696.25;4257678;28;20225;-70
2023/12/26 10:49:59;;;;;;;7.67;3.00;;;;;;;8.46;100.00;98686.28;4264099;28;21736;-74
2023/12/26 10:52:30;;;;;;;6.33;3.27;;;;;;;8.51;100.00;98700.09;4274339;28;20239;-70
2023/12/26 10:55:00;;;;;;;7.50;3.67;;;;;;;8.52;100.00;98693.69;4233455;28;20231;-69
2023/12/26 10:57:34;;;;;;;6.83;3.60;;;;;;;8.49;100.00;98686.00;4221827;28;20234;-72
2023/12/26 11:00:48;;;;;;;5.57;3.33;;;;;;;8.41;100.00;98678.72;4244591;28;20546;-69
2023/12/26 13:51:27;;;;;;;4.73;1.20;;;;;;;8.19;79.57;98868.19;4247712;28;21798;-78
2023/12/26 13:54:31;;;;;;;5.77;2.10;;;;;;;8.29;79.99;98871.56;4228011;28;20677;-79
2023/12/26 13:57:36;;;;;;;2.27;1.03;;;;;;;8.24;79.48;98872.06;4251388;28;20231;-73
2023/12/26 14:00:40;;;;;;;3.73;1.30;;;;;;;8.32;78.39;98881.16;4242394;28;20289;-76
2023/12/26 14:03:49;;;;;;;4.23;1.47;;;;;;;8.27;78.99;98888.94;4247984;28;21001;-74
2023/12/26 14:06:54;;;;;;;4.17;1.57;;;;;;;8.25;78.86;98883.69;4245760;28;20602;-76
2023/12/26 14:09:59;;;;;;;2.17;0.90;;;;;;;8.38;77.67;98913.66;4233409;28;20886;-75
2023/12/26 14:13:03;;;;;;;4.00;1.23;;;;;;;8.41;77.83;98902.53;4249205;28;22468;-77
2023/12/26 14:16:08;;;;;;;4.37;1.37;;;;;;;8.18;79.95;98915.03;4235571;28;20375;-76
2023/12/26 14:19:13;;;;;;;4.73;1.23;;;;;;;8.16;80.95;98903.56;4277499;28;20231;-78
2023/12/26 14:22:18;;;;;;;4.47;1.33;;;;;;;8.23;83.61;98918.91;4265028;28;22398;-77
2023/12/26 14:25:22;;;;;;;3.57;1.70;;;;;;;7.99;88.29;98932.38;4270963;28;20227;-79
2023/12/26 14:28:26;;;;;;;4.03;1.80;;;;;;;7.76;91.22;98935.75;4300225;28;20240;-77
2023/12/26 14:31:30;;;;;;;4.17;1.33;;;;;;;7.70;91.41;98937.28;4251028;28;21996;-75